createdAt,value
2023-01-05T00:00:14.288Z,93.80
2023-01-05T00:01:16.316Z,93.60
2023-01-05T00:02:24.017Z,93.38
2023-01-05T00:03:22.088Z,93.38
2023-01-05T00:04:24.255Z,93.31
2023-01-05T00:05:26.472Z,93.26
2023-01-05T00:06:28.473Z,93.35
2023-01-05T00:07:30.531Z,93.32
2023-01-05T00:08:37.101Z,93.03
2023-01-05T00:09:36.544Z,92.82
2023-01-05T00:10:38.709Z,93.04
2023-01-05T00:11:40.584Z,93.14
2023-01-05T00:12:42.504Z,92.94
2023-01-05T00:13:44.376Z,92.68
2023-01-05T00:14:46.260Z,92.56
2023-01-05T00:15:48.133Z,92.74
2023-01-05T00:16:50.955Z,92.91
2023-01-05T00:17:53.662Z,93.02
2023-01-05T00:18:55.546Z,93.04
2023-01-05T00:19:58.633Z,93.05
2023-01-05T00:21:02.461Z,92.85
2023-01-05T00:22:17.240Z,92.71
2023-01-05T00:23:19.883Z,93.24
2023-01-05T00:24:21.775Z,93.15
2023-01-05T00:25:26.663Z,93.33
2023-01-05T00:26:29.323Z,93.05
2023-01-05T00:27:32.782Z,92.96
2023-01-05T00:28:34.758Z,92.83
2023-01-05T00:29:36.624Z,92.85
2023-01-05T00:30:44.895Z,93.03
2023-01-05T00:31:46.857Z,93.23
2023-01-05T00:32:49.745Z,93.61
2023-01-05T00:33:51.665Z,93.27
2023-01-05T00:34:55.572Z,93.04
2023-01-05T00:35:57.488Z,92.93
2023-01-05T00:36:59.557Z,92.80
2023-01-05T00:38:01.754Z,93.04
2023-01-05T00:39:03.609Z,92.99
2023-01-05T00:40:12.441Z,93.38
2023-01-05T00:41:14.486Z,93.37
2023-01-05T00:42:16.676Z,93.58
2023-01-05T00:43:18.547Z,93.52
2023-01-05T00:44:20.419Z,93.60
2023-01-05T00:45:22.797Z,93.81
2023-01-05T00:46:24.933Z,93.95
2023-01-05T00:47:27.821Z,93.96
2023-01-05T00:48:30.022Z,94.02
2023-01-05T00:49:34.381Z,94.09
2023-01-05T00:50:36.530Z,93.94
2023-01-05T00:51:38.408Z,94.01
2023-01-05T00:52:41.076Z,93.95
2023-01-05T00:53:42.978Z,93.89
2023-01-05T00:54:45.331Z,94.01
2023-01-05T00:55:56.256Z,94.04
2023-01-05T00:56:58.857Z,93.83
2023-01-05T00:58:00.971Z,93.85
2023-01-05T00:59:02.934Z,93.78
2023-01-05T01:00:07.715Z,93.87
2023-01-05T01:01:11.311Z,94.27
2023-01-05T01:02:14.272Z,94.14
2023-01-05T01:03:16.305Z,94.11
2023-01-05T01:04:18.547Z,94.12
2023-01-05T01:05:20.596Z,94.04
2023-01-05T01:06:23.415Z,94.03
2023-01-05T01:07:25.303Z,94.08
2023-01-05T01:08:27.387Z,94.10
2023-01-05T01:09:30.659Z,94.25
2023-01-05T01:10:33.054Z,94.23
2023-01-05T01:11:35.830Z,94.00
2023-01-05T01:12:38.775Z,93.84
2023-01-05T01:13:40.760Z,94.05
2023-01-05T01:14:46.480Z,94.24
2023-01-05T01:15:48.660Z,94.32
2023-01-05T01:16:50.975Z,94.44
2023-01-05T01:17:53.134Z,94.24
2023-01-05T01:18:56.331Z,94.22
2023-01-05T01:20:00.509Z,94.52
2023-01-05T01:21:03.573Z,94.65
2023-01-05T01:22:05.482Z,94.38
2023-01-05T01:23:07.360Z,94.19
2023-01-05T01:24:18.474Z,94.10
2023-01-05T01:25:20.485Z,94.41
2023-01-05T01:26:22.994Z,94.44
2023-01-05T01:27:24.871Z,94.32
2023-01-05T01:28:26.749Z,94.60
2023-01-05T01:29:28.899Z,94.62
2023-01-05T01:30:31.458Z,94.68
2023-01-05T01:31:34.303Z,94.65
2023-01-05T01:32:36.282Z,94.39
2023-01-05T01:33:38.979Z,94.20
2023-01-05T01:35:43.003Z,93.89
2023-01-05T01:36:46.397Z,93.88
2023-01-05T01:37:48.299Z,93.97
2023-01-05T01:38:50.170Z,94.24
2023-01-05T01:39:52.105Z,94.00
2023-01-05T01:40:54.733Z,93.87
2023-01-05T01:41:56.721Z,94.24
2023-01-05T01:42:58.688Z,94.31
2023-01-05T01:44:00.708Z,94.14
2023-01-05T01:45:15.498Z,94.44
2023-01-05T01:46:20.191Z,94.28
2023-01-05T01:48:54.449Z,94.48
2023-01-05T01:50:00.236Z,94.40
2023-01-05T01:51:08.883Z,94.26
2023-01-05T01:52:11.383Z,94.16
2023-01-05T01:53:17.057Z,94.56
2023-01-05T01:54:19.091Z,94.38
2023-01-05T01:55:22.082Z,94.81
2023-01-05T01:56:29.023Z,94.84
2023-01-05T01:57:32.953Z,94.61
2023-01-05T01:58:35.317Z,94.77
2023-01-05T01:59:37.394Z,94.91
2023-01-05T02:00:40.680Z,94.89
2023-01-05T02:01:42.880Z,95.00
2023-01-05T02:02:48.245Z,94.90
2023-01-05T02:03:50.625Z,94.78
2023-01-05T02:04:54.634Z,94.85
2023-01-05T02:05:57.854Z,94.66
2023-01-05T02:07:02.262Z,94.51
2023-01-05T02:08:07.987Z,94.28
2023-01-05T02:09:10.135Z,94.69
2023-01-05T02:10:14.997Z,94.91
2023-01-05T02:11:23.735Z,94.86
2023-01-05T02:14:25.819Z,94.72
2023-01-05T02:15:40.446Z,94.39
2023-01-05T02:18:06.532Z,94.14
2023-01-05T02:19:38.249Z,93.90
2023-01-05T02:20:59.405Z,94.07
2023-01-05T02:22:20.707Z,93.96
2023-01-05T02:23:52.463Z,94.10
2023-01-05T02:25:18.348Z,94.19
2023-01-05T02:26:39.470Z,94.23
2023-01-05T02:28:00.274Z,94.76
2023-01-05T02:29:36.700Z,94.46
2023-01-05T02:30:48.153Z,94.40
2023-01-05T02:32:11.929Z,94.24
2023-01-05T02:33:38.590Z,94.34
2023-01-05T02:35:01.233Z,94.41
2023-01-05T02:36:07.940Z,94.74
2023-01-05T02:37:16.371Z,95.06
2023-01-05T02:38:34.129Z,94.76
2023-01-05T02:39:52.316Z,94.40
2023-01-05T02:40:58.092Z,94.21
2023-01-05T02:42:09.595Z,94.22
2023-01-05T02:43:13.151Z,94.07
2023-01-05T02:44:17.648Z,94.14
2023-01-05T02:45:21.677Z,94.17
2023-01-05T02:46:24.072Z,94.36
2023-01-05T02:47:30.095Z,94.34
2023-01-05T02:48:33.898Z,94.20
2023-01-05T02:49:39.916Z,94.18
2023-01-05T02:50:55.177Z,94.33
2023-01-05T02:51:59.486Z,94.33
2023-01-05T02:53:20.157Z,94.47
2023-01-05T02:54:32.147Z,94.33
2023-01-05T02:57:01.195Z,94.09
2023-01-05T02:58:06.922Z,93.92
2023-01-05T02:59:18.696Z,94.08
2023-01-05T03:00:27.977Z,94.43
2023-01-05T03:01:34.657Z,94.47
2023-01-05T03:02:41.117Z,94.65
2023-01-05T03:03:56.320Z,94.83
2023-01-05T03:05:02.069Z,94.80
2023-01-05T03:06:11.016Z,94.79
2023-01-05T03:07:20.402Z,94.84
2023-01-05T03:08:30.584Z,94.70
2023-01-05T03:09:31.756Z,94.61
2023-01-05T03:12:11.769Z,94.81
2023-01-05T03:13:14.009Z,95.01
2023-01-05T03:14:19.715Z,94.90
2023-01-05T03:15:28.265Z,94.81
2023-01-05T03:16:34.139Z,94.57
2023-01-05T03:17:45.727Z,94.71
2023-01-05T03:18:51.488Z,94.86
2023-01-05T03:19:56.421Z,94.79
2023-01-05T03:21:00.329Z,94.91
2023-01-05T03:22:15.324Z,94.83
2023-01-05T03:23:19.732Z,94.73
2023-01-05T03:24:22.023Z,94.82
2023-01-05T03:25:25.983Z,94.82
2023-01-05T03:26:28.479Z,95.00
2023-01-05T03:27:31.745Z,94.90
2023-01-05T03:28:37.423Z,95.01
2023-01-05T03:29:39.363Z,95.32
2023-01-05T03:31:05.328Z,95.26
2023-01-05T03:32:23.017Z,95.68
2023-01-05T03:33:31.670Z,95.95
2023-01-05T03:34:43.560Z,95.91
2023-01-05T03:35:49.913Z,96.05
2023-01-05T03:37:02.477Z,96.46
2023-01-05T03:38:08.197Z,96.45
2023-01-05T03:39:13.960Z,96.87
2023-01-05T03:40:20.164Z,97.10
2023-01-05T03:41:23.497Z,97.28
2023-01-05T03:42:27.900Z,97.08
2023-01-05T03:43:35.587Z,96.96
2023-01-05T03:44:39.651Z,97.18
2023-01-05T03:45:52.463Z,97.43
2023-01-05T03:46:55.948Z,97.52
2023-01-05T03:47:58.065Z,97.97
2023-01-05T03:49:01.000Z,98.59
2023-01-05T03:50:03.867Z,98.68
2023-01-05T03:51:06.912Z,98.90
2023-01-05T03:52:09.185Z,99.54
2023-01-05T03:53:11.390Z,100.00
2023-01-05T03:54:13.302Z,100.00
2023-01-05T03:55:16.022Z,100.00
2023-01-05T03:56:18.743Z,100.00
2023-01-05T03:57:20.633Z,100.00
2023-01-05T03:58:22.713Z,100.00
2023-01-05T03:59:24.836Z,100.00
2023-01-05T04:00:26.959Z,100.00
2023-01-05T04:01:29.202Z,100.00
2023-01-05T04:02:31.547Z,100.00
2023-01-05T04:03:33.867Z,100.00
2023-01-05T04:04:35.988Z,100.00
2023-01-05T04:05:37.884Z,100.00
2023-01-05T04:06:40.886Z,100.00
2023-01-05T04:07:43.259Z,100.00
2023-01-05T04:08:45.327Z,100.00
2023-01-05T04:09:47.368Z,100.00
2023-01-05T04:10:52.420Z,100.00
2023-01-05T04:11:54.458Z,100.00
2023-01-05T04:12:56.573Z,100.00
2023-01-05T04:13:58.658Z,100.00
2023-01-05T04:15:00.559Z,100.00
2023-01-05T04:16:03.354Z,100.00
2023-01-05T04:17:05.514Z,100.00
2023-01-05T04:18:07.692Z,100.00
2023-01-05T04:19:11.202Z,100.00
2023-01-05T04:20:13.739Z,100.00
2023-01-05T04:21:16.337Z,100.00
2023-01-05T04:22:23.677Z,100.00
2023-01-05T04:23:22.163Z,100.00
2023-01-05T04:24:24.028Z,100.00
2023-01-05T04:25:26.015Z,100.00
2023-01-05T04:26:28.229Z,100.00
2023-01-05T04:27:30.206Z,100.00
2023-01-05T04:28:32.669Z,100.00
2023-01-05T04:29:34.753Z,100.00
2023-01-05T04:30:36.836Z,100.00
2023-01-05T04:31:39.076Z,100.00
2023-01-05T04:32:41.194Z,100.00
2023-01-05T04:33:43.175Z,100.00
2023-01-05T04:34:45.945Z,100.00
2023-01-05T04:35:47.848Z,100.00
2023-01-05T04:36:49.902Z,100.00
2023-01-05T04:37:51.818Z,100.00
2023-01-05T04:38:53.844Z,100.00
2023-01-05T04:39:55.706Z,100.00
2023-01-05T04:40:57.671Z,100.00
2023-01-05T04:41:59.748Z,100.00
2023-01-05T04:43:01.847Z,100.00
2023-01-05T04:44:04.945Z,100.00
2023-01-05T04:45:08.251Z,100.00
2023-01-05T04:46:10.927Z,100.00
2023-01-05T04:47:12.955Z,100.00
2023-01-05T04:48:16.498Z,100.00
2023-01-05T04:49:18.637Z,100.00
2023-01-05T04:50:21.933Z,100.00
2023-01-05T04:51:25.539Z,100.00
2023-01-05T04:52:27.855Z,100.00
2023-01-05T04:53:30.036Z,100.00
2023-01-05T04:54:31.895Z,100.00
2023-01-05T04:55:33.807Z,100.00
2023-01-05T04:56:36.910Z,100.00
2023-01-05T04:57:38.937Z,100.00
2023-01-05T04:58:40.832Z,100.00
2023-01-05T04:59:42.987Z,100.00
2023-01-05T05:00:45.862Z,100.00
2023-01-05T05:01:47.893Z,100.00
2023-01-05T05:02:50.558Z,100.00
2023-01-05T05:03:53.189Z,100.00
2023-01-05T05:04:55.472Z,100.00
2023-01-05T05:05:57.611Z,100.00
2023-01-05T05:06:59.685Z,100.00
2023-01-05T05:08:01.699Z,100.00
2023-01-05T05:09:03.937Z,100.00
2023-01-05T05:10:07.662Z,100.00
2023-01-05T05:11:09.564Z,100.00
2023-01-05T05:12:11.854Z,100.00
2023-01-05T05:13:14.093Z,100.00
2023-01-05T05:14:16.559Z,100.00
2023-01-05T05:15:19.945Z,100.00
2023-01-05T05:16:22.346Z,100.00
2023-01-05T05:17:24.745Z,100.00
2023-01-05T05:18:26.767Z,100.00
2023-01-05T05:19:28.654Z,100.00
2023-01-05T05:20:31.651Z,100.00
2023-01-05T05:21:33.687Z,100.00
2023-01-05T05:22:35.680Z,100.00
2023-01-05T05:23:37.762Z,100.00
2023-01-05T05:24:40.045Z,100.00
2023-01-05T05:25:42.191Z,100.00
2023-01-05T05:26:44.399Z,100.00
2023-01-05T05:27:46.391Z,100.00
2023-01-05T05:28:48.289Z,100.00
2023-01-05T05:29:50.200Z,100.00
2023-01-05T05:30:52.460Z,100.00
2023-01-05T05:31:54.466Z,100.00
2023-01-05T05:32:56.630Z,100.00
2023-01-05T05:33:58.701Z,100.00
2023-01-05T05:35:00.609Z,100.00
2023-01-05T05:36:03.458Z,100.00
2023-01-05T05:37:05.983Z,100.00
2023-01-05T05:38:08.477Z,100.00
2023-01-05T05:39:14.760Z,100.00
2023-01-05T05:40:17.682Z,100.00
2023-01-05T05:41:19.575Z,100.00
2023-01-05T05:42:21.457Z,100.00
2023-01-05T05:43:23.599Z,100.00
2023-01-05T05:44:25.666Z,100.00
2023-01-05T05:45:27.681Z,100.00
2023-01-05T05:46:30.698Z,100.00
2023-01-05T05:47:33.996Z,100.00
2023-01-05T05:48:36.563Z,100.00
2023-01-05T05:49:38.821Z,100.00
2023-01-05T05:50:40.938Z,100.00
2023-01-05T05:51:43.091Z,100.00
2023-01-05T05:52:45.197Z,100.00
2023-01-05T05:53:47.707Z,100.00
2023-01-05T05:54:49.913Z,100.00
2023-01-05T05:55:51.824Z,100.00
2023-01-05T05:56:54.006Z,100.00
2023-01-05T05:57:55.975Z,100.00
2023-01-05T05:59:01.623Z,100.00
2023-01-05T06:00:04.398Z,100.00
2023-01-05T06:01:07.120Z,100.00
2023-01-05T06:02:09.616Z,100.00
2023-01-05T06:03:14.330Z,100.00
2023-01-05T06:04:16.392Z,100.00
2023-01-05T06:05:18.606Z,100.00
2023-01-05T06:06:20.880Z,100.00
2023-01-05T06:07:22.946Z,100.00
2023-01-05T06:08:25.145Z,100.00
2023-01-05T06:09:27.194Z,100.00
2023-01-05T06:10:30.812Z,100.00
2023-01-05T06:11:33.056Z,100.00
2023-01-05T06:12:35.304Z,100.00
2023-01-05T06:13:37.972Z,100.00
2023-01-05T06:14:39.951Z,100.00
2023-01-05T06:15:42.796Z,100.00
2023-01-05T06:16:44.896Z,100.00
2023-01-05T06:17:47.309Z,100.00
2023-01-05T06:18:51.197Z,100.00
2023-01-05T06:19:55.531Z,100.00
2023-01-05T06:21:01.709Z,100.00
2023-01-05T06:22:02.675Z,100.00
2023-01-05T06:23:05.740Z,100.00
2023-01-05T06:24:07.776Z,100.00
2023-01-05T06:25:10.931Z,100.00
2023-01-05T06:26:15.156Z,100.00
2023-01-05T06:27:17.058Z,100.00
2023-01-05T06:28:20.616Z,100.00
2023-01-05T06:29:22.874Z,100.00
2023-01-05T06:30:25.953Z,100.00
2023-01-05T06:31:28.278Z,100.00
2023-01-05T06:32:30.634Z,100.00
2023-01-05T06:33:32.769Z,100.00
2023-01-05T06:34:35.059Z,100.00
2023-01-05T06:35:38.769Z,100.00
2023-01-05T06:36:40.970Z,100.00
2023-01-05T06:37:43.510Z,100.00
2023-01-05T06:38:45.382Z,100.00
2023-01-05T06:39:47.351Z,100.00
2023-01-05T06:40:49.595Z,100.00
2023-01-05T06:41:51.465Z,100.00
2023-01-05T06:42:53.358Z,100.00
2023-01-05T06:43:56.085Z,100.00
2023-01-05T06:44:58.082Z,100.00
2023-01-05T06:45:59.998Z,100.00
2023-01-05T06:47:02.538Z,100.00
2023-01-05T06:48:05.364Z,100.00
2023-01-05T06:49:09.153Z,100.00
2023-01-05T06:50:11.659Z,100.00
2023-01-05T06:51:13.643Z,100.00
2023-01-05T06:52:16.847Z,100.00
2023-01-05T06:53:19.427Z,100.00
2023-01-05T06:54:21.419Z,100.00
2023-01-05T06:55:23.605Z,100.00
2023-01-05T06:56:25.871Z,100.00
2023-01-05T06:57:27.750Z,100.00
2023-01-05T06:58:29.624Z,100.00
2023-01-05T06:59:32.301Z,100.00
2023-01-05T07:00:34.533Z,100.00
2023-01-05T07:01:38.830Z,100.00
2023-01-05T07:02:41.472Z,100.00
2023-01-05T07:03:43.401Z,100.00
2023-01-05T07:04:45.378Z,100.00
2023-01-05T07:05:47.256Z,100.00
2023-01-05T07:06:49.334Z,100.00
2023-01-05T07:07:51.407Z,100.00
2023-01-05T07:08:53.400Z,100.00
2023-01-05T07:09:55.783Z,100.00
2023-01-05T07:10:57.869Z,100.00
2023-01-05T07:11:59.738Z,100.00
2023-01-05T07:13:01.794Z,100.00
2023-01-05T07:14:04.086Z,100.00
2023-01-05T07:15:07.280Z,100.00
2023-01-05T07:16:10.360Z,100.00
2023-01-05T07:17:13.316Z,100.00
2023-01-05T07:18:16.048Z,100.00
2023-01-05T07:19:18.269Z,100.00
2023-01-05T07:20:21.246Z,100.00
2023-01-05T07:21:23.475Z,100.00
2023-01-05T07:22:25.346Z,100.00
2023-01-05T07:23:29.318Z,100.00
2023-01-05T07:24:32.359Z,100.00
2023-01-05T07:25:34.593Z,100.00
2023-01-05T07:26:37.030Z,100.00
2023-01-05T07:27:38.965Z,100.00
2023-01-05T07:28:41.346Z,100.00
2023-01-05T07:29:44.200Z,100.00
2023-01-05T07:30:52.798Z,100.00
2023-01-05T07:31:55.004Z,100.00
2023-01-05T07:34:28.696Z,100.00
2023-01-05T07:35:32.383Z,100.00
2023-01-05T07:36:34.749Z,100.00
2023-01-05T07:37:36.624Z,100.00
2023-01-05T07:38:38.522Z,100.00
2023-01-05T07:39:40.507Z,100.00
2023-01-05T07:40:42.993Z,100.00
2023-01-05T07:41:45.529Z,100.00
2023-01-05T07:42:54.143Z,100.00
2023-01-05T07:43:56.315Z,100.00
2023-01-05T07:44:58.202Z,100.00
2023-01-05T07:47:16.512Z,100.00
2023-01-05T07:48:23.393Z,100.00
2023-01-05T07:49:22.346Z,100.00
2023-01-05T07:50:24.953Z,100.00
2023-01-05T07:51:27.211Z,100.00
2023-01-05T07:52:29.391Z,100.00
2023-01-05T07:53:38.090Z,100.00
2023-01-05T07:54:37.174Z,100.00
2023-01-05T07:55:39.104Z,100.00
2023-01-05T07:56:41.589Z,100.00
2023-01-05T07:57:43.706Z,100.00
2023-01-05T07:58:46.597Z,100.00
2023-01-05T07:59:48.609Z,100.00
2023-01-05T08:00:52.541Z,100.00
2023-01-05T08:01:54.676Z,100.00
2023-01-05T08:02:56.832Z,100.00
2023-01-05T08:03:59.010Z,100.00
2023-01-05T08:05:01.348Z,100.00
2023-01-05T08:06:12.244Z,100.00
2023-01-05T08:07:14.595Z,100.00
2023-01-05T08:08:23.894Z,100.00
2023-01-05T08:09:21.375Z,100.00
2023-01-05T08:10:23.498Z,100.00
2023-01-05T08:11:25.499Z,100.00
2023-01-05T08:12:28.343Z,100.00
2023-01-05T08:13:30.914Z,100.00
2023-01-05T08:14:32.864Z,100.00
2023-01-05T08:15:36.855Z,100.00
2023-01-05T08:16:39.299Z,100.00
2023-01-05T08:17:42.409Z,100.00
2023-01-05T08:18:44.684Z,100.00
2023-01-05T08:19:46.661Z,100.00
2023-01-05T08:20:55.204Z,100.00
2023-01-05T08:21:57.237Z,100.00
2023-01-05T08:22:59.111Z,100.00
2023-01-05T08:24:01.758Z,100.00
2023-01-05T08:25:04.939Z,100.00
2023-01-05T08:26:11.021Z,100.00
2023-01-05T08:27:13.358Z,100.00
2023-01-05T08:28:16.143Z,100.00
2023-01-05T08:29:18.178Z,100.00
2023-01-05T08:30:20.610Z,100.00
2023-01-05T08:31:25.794Z,100.00
2023-01-05T08:32:28.214Z,100.00
2023-01-05T08:33:30.606Z,100.00
2023-01-05T08:34:35.016Z,100.00
2023-01-05T08:35:41.547Z,100.00
2023-01-05T08:36:43.730Z,100.00
2023-01-05T08:37:45.640Z,100.00
2023-01-05T08:38:49.941Z,100.00
2023-01-05T08:39:51.875Z,100.00
2023-01-05T08:40:57.264Z,100.00
2023-01-05T08:42:02.730Z,100.00
2023-01-05T08:43:04.443Z,100.00
2023-01-05T08:44:09.456Z,100.00
2023-01-05T08:45:11.368Z,100.00
2023-01-05T08:46:13.682Z,100.00
2023-01-05T08:47:18.261Z,100.00
2023-01-05T08:48:19.660Z,100.00
2023-01-05T08:49:21.893Z,100.00
2023-01-05T08:50:24.441Z,100.00
2023-01-05T08:51:27.503Z,100.00
2023-01-05T08:52:29.848Z,100.00
2023-01-05T08:53:31.752Z,100.00
2023-01-05T08:54:34.896Z,100.00
2023-01-05T08:55:37.345Z,100.00
2023-01-05T08:56:40.463Z,100.00
2023-01-05T08:57:42.548Z,100.00
2023-01-05T08:58:44.728Z,100.00
2023-01-05T08:59:47.088Z,100.00
2023-01-05T09:00:49.162Z,100.00
2023-01-05T09:01:52.471Z,100.00
2023-01-05T09:02:55.025Z,100.00
2023-01-05T09:03:57.251Z,100.00
2023-01-05T09:04:59.210Z,100.00
2023-01-05T09:06:01.348Z,100.00
2023-01-05T09:07:03.937Z,100.00
2023-01-05T09:08:05.876Z,100.00
2023-01-05T09:09:07.982Z,100.00
2023-01-05T09:10:10.741Z,100.00
2023-01-05T09:11:15.903Z,100.00
2023-01-05T09:12:17.989Z,100.00
2023-01-05T09:13:20.468Z,100.00
2023-01-05T09:14:22.446Z,100.00
2023-01-05T09:15:24.317Z,100.00
2023-01-05T09:17:34.265Z,100.00
2023-01-05T09:18:39.088Z,100.00
2023-01-05T09:19:41.085Z,100.00
2023-01-05T09:20:43.254Z,100.00
2023-01-05T09:21:46.132Z,100.00
2023-01-05T09:22:48.110Z,100.00
2023-01-05T09:23:51.138Z,100.00
2023-01-05T09:24:53.100Z,100.00
2023-01-05T09:25:55.023Z,100.00
2023-01-05T09:26:58.137Z,100.00
2023-01-05T09:28:01.420Z,100.00
2023-01-05T09:29:03.787Z,100.00
2023-01-05T09:30:08.643Z,100.00
2023-01-05T09:31:19.837Z,100.00
2023-01-05T09:32:23.363Z,100.00
2023-01-05T09:33:25.847Z,100.00
2023-01-05T09:34:29.102Z,100.00
2023-01-05T09:35:31.895Z,100.00
2023-01-05T09:36:34.002Z,100.00
2023-01-05T09:37:35.884Z,100.00
2023-01-05T09:38:42.060Z,100.00
2023-01-05T09:39:41.741Z,100.00
2023-01-05T09:40:44.147Z,100.00
2023-01-05T09:41:49.823Z,100.00
2023-01-05T09:42:53.761Z,100.00
2023-01-05T09:44:01.975Z,100.00
2023-01-05T09:45:06.427Z,100.00
2023-01-05T09:46:15.496Z,100.00
2023-01-05T09:47:30.351Z,100.00
2023-01-05T09:48:41.945Z,100.00
2023-01-05T09:49:47.403Z,100.00
2023-01-05T09:50:51.340Z,100.00
2023-01-05T09:52:06.755Z,100.00
2023-01-05T09:53:11.292Z,100.00
2023-01-05T09:54:16.675Z,100.00
2023-01-05T09:55:22.230Z,100.00
2023-01-05T09:57:07.847Z,100.00
2023-01-05T09:57:39.866Z,100.00
2023-01-05T09:58:45.089Z,100.00
2023-01-05T09:59:53.622Z,100.00
2023-01-05T10:01:08.746Z,100.00
2023-01-05T10:02:23.720Z,100.00
2023-01-05T10:04:33.297Z,100.00
2023-01-05T10:05:39.337Z,100.00
2023-01-05T10:06:50.082Z,100.00
2023-01-05T10:08:04.650Z,100.00
2023-01-05T10:09:07.780Z,100.00
2023-01-05T10:10:33.359Z,100.00
2023-01-05T10:11:57.495Z,100.00
2023-01-05T10:13:02.478Z,100.00
2023-01-05T10:14:08.284Z,100.00
2023-01-05T10:15:13.966Z,100.00
2023-01-05T10:16:17.302Z,100.00
2023-01-05T10:18:30.448Z,100.00
2023-01-05T10:19:32.610Z,100.00
2023-01-05T10:20:41.468Z,100.00
2023-01-05T10:22:07.288Z,100.00
2023-01-05T10:23:29.992Z,100.00
2023-01-05T10:26:01.120Z,100.00
2023-01-05T10:27:26.444Z,100.00
2023-01-05T10:28:17.338Z,100.00
2023-01-05T10:29:23.120Z,100.00
2023-01-05T10:30:28.524Z,100.00
2023-01-05T10:31:53.621Z,100.00
2023-01-05T10:34:24.390Z,100.00
2023-01-05T10:36:00.642Z,100.00
2023-01-05T10:37:20.337Z,100.00
2023-01-05T10:38:35.179Z,100.00
2023-01-05T10:39:44.007Z,100.00
2023-01-05T10:40:49.906Z,100.00
2023-01-05T10:42:01.427Z,100.00
2023-01-05T10:43:05.239Z,100.00
2023-01-05T10:44:28.072Z,100.00
2023-01-05T10:45:31.248Z,100.00
2023-01-05T10:46:42.654Z,100.00
2023-01-05T10:47:42.529Z,100.00
2023-01-05T10:48:44.790Z,100.00
2023-01-05T10:49:47.175Z,100.00
2023-01-05T10:50:52.596Z,100.00
2023-01-05T10:51:59.484Z,100.00
2023-01-05T10:53:11.440Z,100.00
2023-01-05T10:54:20.199Z,100.00
2023-01-05T10:55:23.899Z,100.00
2023-01-05T10:56:26.645Z,100.00
2023-01-05T10:57:36.873Z,100.00
2023-01-05T11:00:16.603Z,100.00
2023-01-05T11:01:22.698Z,100.00
2023-01-05T11:02:28.318Z,100.00
2023-01-05T11:04:49.489Z,100.00
2023-01-05T11:05:51.798Z,100.00
2023-01-05T11:06:57.539Z,100.00
2023-01-05T11:08:03.136Z,100.00
2023-01-05T11:09:08.432Z,100.00
2023-01-05T11:10:27.247Z,100.00
2023-01-05T11:11:29.408Z,100.00
2023-01-05T11:12:31.562Z,100.00
2023-01-05T11:13:37.031Z,100.00
2023-01-05T11:14:44.908Z,100.00
2023-01-05T11:15:50.618Z,100.00
2023-01-05T11:16:57.433Z,100.00
2023-01-05T11:17:59.651Z,100.00
2023-01-05T11:19:04.954Z,100.00
2023-01-05T11:20:11.067Z,100.00
2023-01-05T11:21:17.053Z,100.00
2023-01-05T11:22:37.522Z,100.00
2023-01-05T11:23:45.517Z,100.00
2023-01-05T11:24:47.742Z,100.00
2023-01-05T11:25:49.644Z,100.00
2023-01-05T11:26:54.825Z,100.00
2023-01-05T11:29:11.647Z,100.00
2023-01-05T11:30:17.895Z,100.00
2023-01-05T11:31:20.825Z,100.00
2023-01-05T11:32:23.680Z,100.00
2023-01-05T11:33:28.589Z,100.00
2023-01-05T11:34:46.376Z,100.00
2023-01-05T11:35:48.690Z,100.00
2023-01-05T11:37:07.413Z,100.00
2023-01-05T11:38:05.431Z,100.00
2023-01-05T11:39:11.101Z,100.00
2023-01-05T11:40:17.367Z,100.00
2023-01-05T11:41:22.255Z,100.00
2023-01-05T11:42:28.465Z,100.00
2023-01-05T11:43:32.245Z,100.00
2023-01-05T11:44:35.657Z,100.00
2023-01-05T11:45:40.853Z,100.00
2023-01-05T11:46:43.734Z,100.00
2023-01-05T11:47:51.963Z,100.00
2023-01-05T11:48:56.843Z,100.00
2023-01-05T11:50:09.521Z,100.00
2023-01-05T11:51:14.444Z,100.00
2023-01-05T11:52:29.137Z,100.00
2023-01-05T11:53:34.911Z,100.00
2023-01-05T11:54:37.177Z,100.00
2023-01-05T11:55:39.209Z,100.00
2023-01-05T11:56:41.440Z,100.00
2023-01-05T11:57:43.384Z,100.00
2023-01-05T11:58:51.961Z,100.00
2023-01-05T11:59:54.228Z,100.00
2023-01-05T12:01:22.848Z,100.00
2023-01-05T12:02:31.941Z,100.00
2023-01-05T12:04:00.415Z,100.00
2023-01-05T12:05:08.732Z,100.00
2023-01-05T12:06:31.767Z,100.00
2023-01-05T12:07:36.666Z,100.00
2023-01-05T12:08:58.172Z,100.00
2023-01-05T12:10:30.606Z,100.00
2023-01-05T12:12:56.475Z,100.00
2023-01-05T12:14:14.923Z,100.00
2023-01-05T12:15:43.523Z,100.00
2023-01-05T12:16:54.893Z,100.00
2023-01-05T12:18:06.663Z,100.00
2023-01-05T12:19:18.528Z,100.00
2023-01-05T12:20:46.952Z,100.00
2023-01-05T12:22:00.591Z,100.00
2023-01-05T12:23:34.198Z,100.00
2023-01-05T12:25:01.036Z,100.00
2023-01-05T12:26:30.999Z,100.00
2023-01-05T12:28:01.737Z,100.00
2023-01-05T12:34:46.455Z,100.00
2023-01-05T12:35:55.393Z,100.00
2023-01-05T12:37:07.454Z,100.00
2023-01-05T12:38:48.664Z,100.00
2023-01-05T12:40:09.699Z,100.00
2023-01-05T12:41:31.026Z,100.00
2023-01-05T12:42:40.008Z,100.00
2023-01-05T12:44:05.634Z,100.00
2023-01-05T12:45:20.646Z,100.00
2023-01-05T12:46:29.263Z,100.00
2023-01-05T12:47:50.278Z,100.00
2023-01-05T12:50:22.502Z,100.00
2023-01-05T12:51:28.229Z,100.00
2023-01-05T12:52:36.836Z,100.00
2023-01-05T12:53:51.914Z,100.00
2023-01-05T12:55:06.188Z,100.00
2023-01-05T12:57:35.733Z,100.00
2023-01-05T12:58:41.403Z,100.00
2023-01-05T12:59:50.042Z,100.00
2023-01-05T13:00:55.647Z,100.00
2023-01-05T13:02:16.463Z,100.00
2023-01-05T13:03:31.222Z,100.00
2023-01-05T13:04:48.473Z,100.00
2023-01-05T13:05:56.552Z,100.00
2023-01-05T13:07:01.704Z,100.00
2023-01-05T13:08:16.575Z,100.00
2023-01-05T13:09:23.740Z,100.00
2023-01-05T13:10:50.839Z,100.00
2023-01-05T13:11:59.371Z,100.00
2023-01-05T13:13:05.096Z,100.00
2023-01-05T13:14:19.544Z,100.00
2023-01-05T13:15:28.903Z,100.00
2023-01-05T13:16:51.680Z,100.00
2023-01-05T13:17:58.746Z,100.00
2023-01-05T13:19:10.791Z,100.00
2023-01-05T13:20:29.086Z,100.00
2023-01-05T13:21:32.530Z,100.00
2023-01-05T13:22:38.781Z,100.00
2023-01-05T13:23:44.632Z,100.00
2023-01-05T13:24:53.132Z,100.00
2023-01-05T13:26:16.905Z,100.00
2023-01-05T13:27:18.960Z,100.00
2023-01-05T13:28:24.532Z,100.00
2023-01-05T13:31:29.810Z,100.00
2023-01-05T13:32:33.824Z,100.00
2023-01-05T13:33:59.647Z,100.00
2023-01-05T13:35:34.682Z,100.00
2023-01-05T13:37:08.095Z,100.00
2023-01-05T13:38:24.431Z,100.00
2023-01-05T13:39:47.025Z,100.00
2023-01-05T13:40:58.833Z,100.00
2023-01-05T13:42:02.544Z,100.00
2023-01-05T13:43:34.225Z,100.00
2023-01-05T13:44:55.446Z,100.00
2023-01-05T13:46:35.441Z,100.00
2023-01-05T13:49:34.652Z,100.00
2023-01-05T13:50:43.477Z,100.00
2023-01-05T13:51:54.965Z,100.00
2023-01-05T13:53:13.472Z,100.00
2023-01-05T13:54:19.864Z,100.00
2023-01-05T13:55:26.658Z,100.00
2023-01-05T13:56:32.114Z,100.00
2023-01-05T13:57:40.587Z,100.00
2023-01-05T13:58:46.039Z,100.00
2023-01-05T14:00:04.052Z,100.00
2023-01-05T14:00:57.204Z,100.00
2023-01-05T14:01:59.896Z,100.00
2023-01-05T14:03:05.750Z,100.00
2023-01-05T14:04:26.843Z,100.00
2023-01-05T14:05:35.501Z,100.00
2023-01-05T14:06:41.461Z,100.00
2023-01-05T14:07:44.349Z,100.00
2023-01-05T14:08:59.169Z,100.00
2023-01-05T14:10:01.825Z,100.00
2023-01-05T14:11:22.773Z,100.00
2023-01-05T14:12:49.561Z,100.00
2023-01-05T14:13:57.765Z,100.00
2023-01-05T14:15:06.414Z,100.00
2023-01-05T14:16:35.511Z,100.00
2023-01-05T14:17:52.181Z,100.00
2023-01-05T14:18:57.904Z,100.00
2023-01-05T14:19:59.924Z,100.00
2023-01-05T14:21:10.827Z,100.00
2023-01-05T14:22:22.580Z,100.00
2023-01-05T14:23:28.371Z,100.00
2023-01-05T14:24:41.443Z,100.00